Time;durP1;ratioP1;P1;durP2;ratioP2;P2;SDS_P1;SDS_P2;PMS_P1;PMS_P2;Temp;Humidity;BMP_temperature;BMP_pressure;BME280_temperature;BME280_humidity;BME280_pressure;Samples;Min_cycle;Max_cycle;Signal;HPM_P1;HPM_P2
2022/12/13 00:00:23;;;;;;;35.47;17.33;;;;;;;-5.48;100.00;101074.22;5204981;28;20334;-75
2022/12/13 00:02:54;;;;;;;37.00;18.07;;;;;;;-5.47;100.00;101080.28;5216069;28;20033;-75
2022/12/13 00:05:25;;;;;;;33.43;17.30;;;;;;;-5.49;100.00;101069.91;5211419;28;20399;-75
2022/12/13 00:07:58;;;;;;;33.63;16.97;;;;;;;-5.51;100.00;101071.63;5213508;28;20181;-75
2022/12/13 00:10:29;;;;;;;32.13;17.03;;;;;;;-5.54;100.00;101064.75;5216255;28;20088;-76
2022/12/13 00:13:01;;;;;;;34.93;16.87;;;;;;;-5.49;100.00;101066.44;5211051;28;20037;-75
2022/12/13 00:15:32;;;;;;;33.50;16.70;;;;;;;-5.53;100.00;101065.59;5210451;28;20033;-75
2022/12/13 00:18:03;;;;;;;34.63;17.70;;;;;;;-5.57;100.00;101061.28;5209634;28;20145;-75
2022/12/13 00:20:39;;;;;;;34.30;17.10;;;;;;;-5.60;100.00;101064.78;5211158;28;20033;-75
2022/12/13 00:23:10;;;;;;;33.87;17.00;;;;;;;-5.56;100.00;101063.00;5210912;28;20040;-75
2022/12/13 00:25:41;;;;;;;34.77;18.50;;;;;;;-5.57;100.00;101058.69;5219943;28;20433;-75
2022/12/13 00:28:14;;;;;;;34.33;17.73;;;;;;;-5.61;100.00;101057.00;5200747;28;20369;-75
2022/12/13 00:30:45;;;;;;;28.77;16.20;;;;;;;-5.64;100.00;101059.59;5198166;28;20472;-75
2022/12/13 00:33:16;;;;;;;33.67;16.90;;;;;;;-5.64;100.00;101064.78;5199043;28;20048;-75
2022/12/13 00:35:48;;;;;;;33.87;16.67;;;;;;;-5.68;100.00;101063.09;5200867;28;20036;-75
2022/12/13 00:38:20;;;;;;;35.10;17.37;;;;;;;-5.73;100.00;101058.78;5198204;28;20034;-76
2022/12/13 00:40:51;;;;;;;38.87;18.63;;;;;;;-5.64;100.00;101055.25;5206621;28;20041;-75
2022/12/13 00:43:22;;;;;;;35.10;17.30;;;;;;;-5.70;100.00;101055.31;5211703;28;20029;-75
2022/12/13 00:45:53;;;;;;;34.47;17.17;;;;;;;-5.73;100.00;101052.75;5210244;28;20026;-75
2022/12/13 00:48:25;;;;;;;36.43;18.27;;;;;;;-5.78;100.00;101060.53;5211685;28;20404;-75
2022/12/13 00:50:56;;;;;;;35.90;17.40;;;;;;;-5.78;100.00;101055.34;5209591;28;21674;-76
2022/12/13 00:53:27;;;;;;;37.53;17.90;;;;;;;-5.84;100.00;101055.38;5208266;28;20079;-75
2022/12/13 00:55:59;;;;;;;32.93;16.97;;;;;;;-5.78;100.00;101046.69;5212851;28;20128;-75
2022/12/13 00:58:30;;;;;;;36.90;18.93;;;;;;;-5.86;100.00;101048.50;5213304;28;20037;-75
2022/12/13 01:01:07;;;;;;;35.87;17.77;;;;;;;-5.84;100.00;101049.34;5208941;28;20554;-75
2022/12/13 01:03:39;;;;;;;38.60;17.53;;;;;;;-5.85;100.00;101045.00;5207560;28;20551;-75
2022/12/13 01:06:50;;;;;;;33.63;18.10;;;;;;;-5.85;100.00;101045.84;5217420;28;20033;-75
2022/12/13 01:09:29;;;;;;;32.97;18.37;;;;;;;-5.90;100.00;101052.84;5212436;28;20044;-75
2022/12/13 01:12:04;;;;;;;37.80;18.17;;;;;;;-5.95;100.00;101046.81;5215562;28;20040;-75
2022/12/13 01:14:36;;;;;;;;;;;;;;;-5.89;100.00;101045.91;5222123;28;20033;-75
2022/12/13 01:17:07;;;;;;;;;;;;;;;-5.92;100.00;101044.19;5214835;28;19979;-75
2022/12/13 01:19:38;;;;;;;;;;;;;;;-5.93;100.00;101043.31;5216303;28;19921;-75
2022/12/13 01:22:10;;;;;;;;;;;;;;;-5.96;100.00;101040.78;5208500;28;20020;-75
2022/12/13 01:24:42;;;;;;;;;;;;;;;-5.98;100.00;101039.06;5212086;28;19917;-75
2022/12/13 01:27:14;;;;;;;;;;;;;;;-6.01;100.00;101039.91;5225060;28;20359;-75
2022/12/13 01:29:45;;;;;;;;;;;;;;;-6.02;100.00;101034.72;5221561;28;19924;-75
2022/12/13 01:32:16;;;;;;;;;;;;;;;-6.04;100.00;101031.28;5219809;28;20395;-75
2022/12/13 01:34:47;;;;;;;;;;;;;;;-6.05;100.00;101042.56;5217502;28;19989;-75
2022/12/13 01:37:19;;;;;;;;;;;;;;;-6.02;100.00;101037.31;5219339;28;20380;-75
2022/12/13 01:39:50;;;;;;;;;;;;;;;-5.96;100.00;101048.56;5217899;28;19928;-75
2022/12/13 01:42:21;;;;;;;;;;;;;;;-5.92;100.00;101049.38;5212842;28;19987;-75
2022/12/13 01:45:19;;;;;;;;;;;;;;;-5.91;100.00;101049.38;5213664;28;19927;-75
2022/12/13 01:47:53;;;;;;;;;;;;;;;-5.89;100.00;101054.53;5211591;28;19921;-75
2022/12/13 01:50:27;;;;;;;;;;;;;;;-5.91;100.00;101049.38;5212449;28;20234;-75
2022/12/13 01:52:58;;;;;;;;;;;;;;;-5.91;100.00;101056.28;5213381;28;19917;-75
2022/12/13 01:55:31;;;;;;;;;;;;;;;-5.89;100.00;101051.94;5213700;28;19936;-75
2022/12/13 01:58:03;;;;;;;;;;;;;;;-5.87;100.00;101049.34;5213941;28;19925;-75
2022/12/13 02:00:35;;;;;;;;;;;;;;;-5.86;100.00;101057.13;5209676;28;19927;-75
2022/12/13 02:03:06;;;;;;;;;;;;;;;-5.85;100.00;101052.78;5211760;28;21679;-75
2022/12/13 02:05:40;;;;;;;;;;;;;;;-5.87;100.00;101042.41;5213270;28;19931;-75
2022/12/13 02:08:13;;;;;;;;;;;;;;;-5.83;100.00;101041.53;5211033;28;21521;-75
2022/12/13 02:10:44;;;;;;;;;;;;;;;-5.83;100.00;101038.94;5215437;28;19921;-75
2022/12/13 02:13:16;;;;;;;;;;;;;;;-5.80;100.00;101041.50;5211868;28;20272;-75
2022/12/13 02:16:05;;;;;;;;;;;;;;;-5.79;100.00;101034.56;5212291;28;19967;-75
2022/12/13 02:18:49;;;;;;;;;;;;;;;-5.79;100.00;101043.25;5213144;28;20545;-75
2022/12/13 02:21:23;;;;;;;;;;;;;;;-5.78;100.00;101039.75;5209916;28;19925;-75
2022/12/13 02:24:06;;;;;;;;;;;;;;;-5.78;100.00;101036.31;5211789;28;19917;-75
2022/12/13 02:26:53;;;;;;;;;;;;;;;-5.79;100.00;101048.44;5215564;28;19917;-75
2022/12/13 02:29:43;;;;;;;;;;;;;;;-5.82;100.00;101038.06;5209323;28;20363;-75
2022/12/13 02:32:26;;;;;;;;;;;;;;;-5.87;100.00;101049.34;5213600;28;20852;-75
2022/12/13 02:35:00;;;;;;;;;;;;;;;-5.94;100.00;101038.13;5210307;28;19983;-75
2022/12/13 02:37:31;;;;;;;;;;;;;;;-5.99;100.00;101042.53;5213307;28;21261;-75
2022/12/13 02:40:07;;;;;;;;;;;;;;;-6.03;100.00;101039.06;5211282;28;20482;-75
2022/12/13 02:42:47;;;;;;;;;;;;;;;-6.07;100.00;101039.09;5212622;28;20298;-75
2022/12/13 02:45:45;;;;;;;;;;;;;;;-6.12;100.00;101032.22;5215531;28;19917;-75
2022/12/13 02:48:20;;;;;;;;;;;;;;;-6.14;100.00;101023.53;5211208;28;20051;-75
2022/12/13 02:50:52;;;;;;;;;;;;;;;-6.11;100.00;101018.34;5211826;28;19921;-75
2022/12/13 02:53:24;;;;;;;;;;;;;;;-6.07;100.00;101026.13;5213827;28;20295;-75
2022/12/13 02:55:55;;;;;;;;;;;;;;;-6.06;100.00;101028.69;5216930;28;19968;-75
2022/12/13 02:58:29;;;;;;;;;;;;;;;-6.02;100.00;101016.53;5214038;28;19953;-75
2022/12/13 03:01:06;;;;;;;;;;;;;;;-6.02;100.00;101012.25;5217033;28;20414;-75
2022/12/13 03:03:52;;;;;;;;;;;;;;;-6.01;100.00;101006.16;5215473;28;19967;-75
2022/12/13 03:06:38;;;;;;;;;;;;;;;-5.97;100.00;101009.59;5215741;28;21680;-75
2022/12/13 03:09:15;;;;;;;;;;;;;;;-5.96;100.00;101006.16;5217107;28;19920;-75
2022/12/13 03:14:55;;;;;;;;;;;;;;;-5.95;100.00;101008.69;5215397;28;19948;-75
2022/12/13 03:17:28;;;;;;;;;;;;;;;-5.95;100.00;101010.44;5213943;28;20354;-75
2022/12/13 03:20:01;;;;;;;;;;;;;;;-5.94;100.00;101017.34;5215697;28;19921;-75
2022/12/13 03:22:33;;;;;;;;;;;;;;;-5.93;100.00;101016.47;5215208;28;19967;-75
2022/12/13 03:25:04;;;;;;;;;;;;;;;-5.95;100.00;101008.69;5217561;28;20528;-75
2022/12/13 03:27:36;;;;;;;;;;;;;;;-5.96;100.00;101009.59;5216156;28;20585;-75
2022/12/13 03:30:07;;;;;;;;;;;;;;;-5.96;100.00;101016.53;5221055;28;19920;-75
2022/12/13 03:32:38;;;;;;;;;;;;;;;-5.97;100.00;101017.41;5227580;28;20379;-75
2022/12/13 03:35:09;;;;;;;;;;;;;;;-5.98;100.00;101010.50;5221077;28;20283;-75
2022/12/13 03:37:41;;;;;;;;;;;;;;;-5.99;100.00;101012.19;5225540;28;19925;-75
2022/12/13 03:40:12;;;;;;;;;;;;;;;-5.99;100.00;101013.94;5217888;28;20022;-75
2022/12/13 03:42:43;;;;;;;;;;;;;;;-6.01;100.00;101008.75;5227269;28;19917;-75
2022/12/13 03:45:15;;;;;;;;;;;;;;;-5.99;100.00;101004.41;5220435;28;19920;-75
2022/12/13 03:47:47;;;;;;;;;;;;;;;-5.98;100.00;101003.56;5222131;28;19962;-75
2022/12/13 03:50:18;;;;;;;;;;;;;;;-5.97;100.00;101004.41;5225528;28;19995;-75
2022/12/13 03:52:50;;;;;;;;;;;;;;;-5.95;100.00;101006.06;5228015;28;20043;-75
2022/12/13 03:55:21;;;;;;;;;;;;;;;-5.95;100.00;101000.06;5226878;28;20268;-75
2022/12/13 03:57:53;;;;;;;;;;;;;;;-5.93;100.00;101006.06;5226649;28;20012;-75
2022/12/13 04:00:24;;;;;;;;;;;;;;;-5.94;100.00;100994.81;5256683;28;19998;-75
2022/12/13 04:02:55;;;;;;;;;;;;;;;-5.93;100.00;100996.53;5217416;28;19916;-75
2022/12/13 04:05:27;;;;;;;;;;;;;;;-5.91;100.00;101000.03;5218066;28;19916;-75
2022/12/13 04:07:58;;;;;;;;;;;;;;;-5.91;100.00;101000.03;5218103;28;19924;-75
2022/12/13 04:10:30;;;;;;;;;;;;;;;-5.89;100.00;100997.38;5223196;28;20459;-75
2022/12/13 04:15:51;;;;;;;;;;;;;;;-5.89;100.00;100997.38;5221513;28;20024;-75
2022/12/13 04:18:22;;;;;;;;;;;;;;;-5.90;100.00;101000.88;5254112;28;19917;-75
2022/12/13 04:20:53;;;;;;;;;;;;;;;-5.93;100.00;100985.28;5226953;28;19920;-75
2022/12/13 04:23:24;;;;;;;;;;;;;;;-5.91;100.00;100983.53;5225045;28;20395;-75
2022/12/13 04:25:57;;;;;;;;;;;;;;;-5.91;100.00;100997.41;5226428;28;19921;-75
2022/12/13 04:28:28;;;;;;;;;;;;;;;-5.91;100.00;100991.34;5226954;28;20741;-75
2022/12/13 04:30:59;;;;;;;;;;;;;;;-5.93;100.00;100988.75;5215459;28;19958;-75
2022/12/13 04:33:31;;;;;;;;;;;;;;;-5.94;100.00;100984.44;5213534;28;19917;-75
2022/12/13 04:36:02;;;;;;;;;;;;;;;-5.93;100.00;100988.75;5208026;28;20014;-75
2022/12/13 04:38:34;;;;;;;;;;;;;;;-5.93;100.00;100991.34;5203140;28;20681;-75
2022/12/13 04:41:06;;;;;;;;;;;;;;;-5.91;100.00;100988.75;5203745;28;20357;-75
2022/12/13 04:43:37;;;;;;;;;;;;;;;-5.93;100.00;100986.16;5207661;28;19917;-75
2022/12/13 04:46:08;;;;;;;;;;;;;;;-5.94;100.00;100993.97;5206700;28;19940;-75
2022/12/13 04:48:39;;;;;;;;;;;;;;;-5.98;100.00;100982.78;5205058;28;19921;-75
2022/12/13 04:51:10;;;;;;;;;;;;;;;-5.96;100.00;100980.16;5209620;28;20276;-75
2022/12/13 04:53:41;;;;;;;;;;;;;;;-5.96;100.00;100980.16;5201705;28;19916;-75
2022/12/13 04:56:13;;;;;;;;;;;;;;;-5.96;100.00;100974.97;5199079;28;20103;-75
2022/12/13 04:58:44;;;;;;;;;;;;;;;-5.95;100.00;100979.28;5202193;28;19972;-75
2022/12/13 05:01:15;;;;;;;;;;;;;;;-5.94;100.00;100978.38;5198654;28;20557;-75
2022/12/13 05:03:47;;;;;;;;;;;;;;;-5.97;100.00;100981.03;5229986;28;19917;-75
2022/12/13 05:06:18;;;;;;;;;;;;;;;-5.96;100.00;100983.63;5201828;28;19970;-75
2022/12/13 05:08:49;;;;;;;;;;;;;;;-5.97;100.00;100983.63;5201625;28;19920;-75
2022/12/13 05:11:20;;;;;;;;;;;;;;;-5.99;100.00;100974.97;5206656;28;19916;-75
2022/12/13 05:13:51;;;;;;;;;;;;;;;-5.98;100.00;100977.56;5207831;28;20426;-75
2022/12/13 05:16:23;;;;;;;;;;;;;;;-5.98;100.00;100974.13;5205108;28;20343;-75
2022/12/13 05:18:54;;;;;;;;;;;;;;;-5.97;100.00;100974.09;5207075;28;20012;-75
2022/12/13 05:21:25;;;;;;;;;;;;;;;-5.98;100.00;100977.56;5208394;28;19921;-75
2022/12/13 05:23:56;;;;;;;;;;;;;;;-5.98;100.00;100979.31;5215932;28;20329;-76
2022/12/13 05:26:28;;;;;;;;;;;;;;;-5.98;100.00;100969.78;5220165;28;19923;-75
2022/12/13 05:28:59;;;;;;;;;;;;;;;-5.98;100.00;100964.59;5224035;28;20025;-76
2022/12/13 05:31:30;;;;;;;;;;;;;;;-5.99;100.00;100959.41;5216171;28;19909;-75
2022/12/13 05:34:01;;;;;;;;;;;;;;;-5.99;100.00;100956.81;5220866;28;20534;-75
2022/12/13 05:36:33;;;;;;;;;;;;;;;-6.01;100.00;100958.53;5217720;28;19982;-75
2022/12/13 05:39:04;;;;;;;;;;;;;;;-6.02;100.00;100955.09;5221044;28;19987;-75
2022/12/13 05:41:35;;;;;;;;;;;;;;;-6.02;100.00;100956.81;5218632;28;19921;-75
2022/12/13 05:44:09;;;;;;;;;;;;;;;-6.01;100.00;100950.75;5220846;28;19917;-75
2022/12/13 05:46:40;;;;;;;;;;;;;;;-6.01;100.00;100953.34;5221396;28;20378;-75
2022/12/13 05:49:11;;;;;;;;;;;;;;;-5.99;100.00;100957.66;5220670;28;19917;-75
2022/12/13 05:51:42;;;;;;;;;;;;;;;-5.99;100.00;100949.00;5224023;28;19964;-75
2022/12/13 05:54:14;;;;;;;;;;;;;;;-5.99;100.00;100947.25;5226445;28;19921;-75
2022/12/13 05:56:45;;;;;;;;;;;;;;;-5.98;100.00;100955.94;5226246;28;20036;-76
2022/12/13 05:59:16;;;;;;;;;;;;;;;-6.00;100.00;100948.16;5227836;28;19967;-75
2022/12/13 06:01:48;;;;;;;;;;;;;;;-6.05;100.00;100949.91;5226508;28;20016;-75
2022/12/13 06:04:20;;;;;;;;;;;;;;;-6.11;100.00;100953.41;5224747;28;19917;-75
2022/12/13 06:06:51;;;;;;;;;;;;;;;-6.16;100.00;100949.97;5227717;28;21735;-75
2022/12/13 06:09:22;;;;;;;;;;;;;;;-6.21;100.00;100956.94;5221661;28;19913;-75
2022/12/13 06:11:53;;;;;;;;;;;;;;;-6.25;100.00;100952.63;5219380;28;19971;-75
2022/12/13 06:14:24;;;;;;;;;;;;;;;-6.28;100.00;100957.84;5219178;28;19925;-75
2022/12/13 06:16:56;;;;;;;;;;;;;;;-6.28;100.00;100956.97;5218179;28;20362;-75
2022/12/13 06:19:27;;;;;;;;;;;;;;;-6.28;100.00;100956.97;5216800;28;20401;-75
2022/12/13 06:21:58;;;;;;;;;;;;;;;-6.28;100.00;100962.19;5221297;28;20207;-75
2022/12/13 06:24:29;;;;;;;;;;;;;;;-6.33;100.00;100957.00;5219707;28;19943;-75
2022/12/13 06:27:01;;;;;;;;;;;;;;;-6.34;100.00;100957.88;5219353;28;20279;-75
2022/12/13 06:29:32;;;;;;;;;;;;;;;-6.35;100.00;100957.03;5217033;28;19979;-75
2022/12/13 06:32:03;;;;;;;;;;;;;;;-6.36;100.00;100957.88;5215132;28;20281;-75
2022/12/13 06:34:35;;;;;;;;;;;;;;;-6.39;100.00;100947.50;5214829;28;19921;-75
2022/12/13 06:37:07;;;;;;;;;;;;;;;-6.42;100.00;100967.41;5225822;28;20046;-75
2022/12/13 06:39:39;;;;;;;;;;;;;;;-6.45;100.00;100960.50;5219993;28;19923;-75
2022/12/13 06:42:14;;;;;;;;;;;;;;;-6.46;100.00;100960.50;5214620;28;19917;-75
2022/12/13 06:44:45;;;;;;;;;;;;;;;-6.49;100.00;100964.00;5216084;28;19916;-75
2022/12/13 06:47:17;;;;;;;;;;;;;;;-6.51;100.00;100970.94;5237025;28;19924;-75
2022/12/13 06:49:48;;;;;;;;;;;;;;;-6.51;100.00;100970.94;5213844;28;19921;-76
2022/12/13 06:52:19;;;;;;;;;;;;;;;-6.51;100.00;100964.00;5211432;28;19943;-75
2022/12/13 06:54:50;;;;;;;;;;;;;;;-6.49;100.00;100957.94;5213219;28;19921;-75
2022/12/13 06:57:21;;;;;;;;;;;;;;;-6.48;100.00;100950.16;5216889;28;19959;-74
2022/12/13 06:59:52;;;;;;;;;;;;;;;-6.47;100.00;100951.03;5215473;28;19921;-75
2022/12/13 07:02:24;;;;;;;;;;;;;;;-6.44;100.00;100956.19;5213386;28;19920;-75
2022/12/13 07:04:55;;;;;;;;;;;;;;;-6.42;100.00;100960.50;5209722;28;20283;-75
2022/12/13 07:07:26;;;;;;;;;;;;;;;-6.39;100.00;100949.25;5215492;28;19923;-75
2022/12/13 07:09:58;;;;;;;;;;;;;;;-6.37;100.00;100958.72;5215407;28;20375;-75
2022/12/13 07:12:29;;;;;;;;;;;;;;;-6.36;100.00;100959.63;5218115;28;19928;-74
2022/12/13 07:15:00;;;;;;;;;;;;;;;-6.36;100.00;100962.22;5214543;28;19928;-75
2022/12/13 07:17:31;;;;;;;;;;;;;;;-6.38;100.00;100950.97;5215591;28;20421;-75
2022/12/13 07:20:06;;;;;;;;;;;;;;;-6.35;100.00;100954.44;5214920;28;20331;-75
2022/12/13 07:22:37;;;;;;;;;;;;;;;-6.34;100.00;100950.09;5215822;28;19921;-75
2022/12/13 07:25:09;;;;;;;;;;;;;;;-6.34;100.00;100947.50;5217741;28;19943;-74
2022/12/13 07:27:40;;;;;;;;;;;;;;;-6.33;100.00;100950.09;5214970;28;19955;-75
2022/12/13 07:30:11;;;;;;;;;;;;;;;-6.30;100.00;100951.78;5215594;28;20422;-74
2022/12/13 07:32:42;;;;;;;;;;;;;;;-6.30;100.00;100949.19;5210476;28;19979;-75
2022/12/13 07:35:13;;;;;;;;;;;;;;;-6.29;100.00;100947.47;5209005;28;20378;-75
2022/12/13 07:37:45;;;;;;;;;;;;;;;-6.28;100.00;100960.44;5217812;28;19937;-74
2022/12/13 07:40:16;;;;;;;;;;;;;;;-6.27;100.00;100951.78;5220700;28;20070;-75
2022/12/13 07:42:51;;;;;;;;;;;;;;;-6.25;100.00;100956.94;5214532;28;19921;-75
2022/12/13 07:45:23;;;;;;;;;;;;;;;-6.24;100.00;100956.94;5217580;28;19964;-75
2022/12/13 07:47:54;;;;;;;;;;;;;;;-6.21;100.00;100956.06;5212357;28;20413;-75
2022/12/13 07:50:26;;;;;;;;;;;;;;;-6.21;100.00;100959.53;5218336;28;21280;-75
2022/12/13 07:52:57;;;;;;;;;;;;;;;-6.19;100.00;100972.53;5213146;28;19920;-75
2022/12/13 07:55:28;;;;;;;;;;;;;;;-6.18;100.00;100976.81;5212755;28;19917;-75
2022/12/13 07:58:04;;;;;;;;;;;;;;;-6.17;100.00;100974.22;5216605;28;19967;-75
2022/12/13 08:00:39;;;;;;;;;;;;;;;-6.18;100.00;100969.03;5220062;28;19921;-75
2022/12/13 08:03:10;;;;;;;;;;;;;;;-6.18;100.00;100972.47;5225788;28;20359;-75
2022/12/13 08:05:41;;;;;;;;;;;;;;;-6.16;100.00;100965.53;5226269;28;19924;-75
2022/12/13 08:08:12;;;;;;;;;;;;;;;-6.16;100.00;100962.94;5226727;28;20677;-75
2022/12/13 08:10:43;;;;;;;;;;;;;;;-6.15;100.00;100964.69;5233883;28;19943;-75
2022/12/13 08:13:15;;;;;;;;;;;;;;;-6.14;100.00;100963.81;5229217;28;19920;-75
2022/12/13 08:15:46;;;;;;;;;;;;;;;-6.12;100.00;100969.00;5231724;28;19921;-75
2022/12/13 08:18:17;;;;;;;;;;;;;;;-6.11;100.00;100970.72;5220254;28;19918;-75
2022/12/13 08:20:48;;;;;;;;;;;;;;;-6.08;100.00;100969.84;5236049;28;19921;-76
2022/12/13 08:23:19;;;;;;;;;;;;;;;-6.05;100.00;100969.84;5225216;28;20428;-75
2022/12/13 08:25:53;;;;;;;;;;;;;;;-6.05;100.00;100973.28;5220548;28;19924;-75
2022/12/13 08:28:25;;;;;;;;;;;;;;;-6.02;100.00;100975.00;5224726;28;20410;-75
2022/12/13 08:31:07;;;;;;;;;;;;;;;-6.01;100.00;100972.38;5231161;28;19956;-75
2022/12/13 08:33:39;;;;;;;;;;;;;;;-5.97;100.00;100983.63;5232024;28;20047;-75
2022/12/13 08:36:11;;;;;;;;;;;;;;;-5.95;100.00;100987.06;5234135;28;19917;-76
2022/12/13 08:38:43;;;;;;;;;;;;;;;-5.89;100.00;100981.81;5232511;28;20260;-76
2022/12/13 08:41:14;;;;;;;;;;;;;;;-5.85;100.00;100975.69;5227241;28;19924;-76
2022/12/13 08:43:46;;;;;;;;;;;;;;;-5.82;100.00;100970.50;5232933;28;19924;-76
2022/12/13 08:46:17;;;;;;;;;;;;;;;-5.77;100.00;100973.06;5242446;28;21714;-76
2022/12/13 08:48:48;;;;;;;;;;;;;;;-5.74;100.00;100970.44;5235909;28;20465;-76
2022/12/13 08:51:23;;;;;;;;;;;;;;;-5.68;100.00;100982.53;5232689;28;20109;-76
2022/12/13 08:53:55;;;;;;;;;;;;;;;-5.66;100.00;100979.03;5236220;28;19916;-76
2022/12/13 08:56:26;;;;;;;;;;;;;;;-5.61;100.00;100989.41;5232078;28;19928;-76
2022/12/13 08:58:57;;;;;;;;;;;;;;;-5.57;100.00;101001.50;5232262;28;19967;-76
2022/12/13 09:01:28;;;;;;;;;;;;;;;-5.53;100.00;101011.00;5230839;28;20346;-76
2022/12/13 09:03:59;;;;;;;;;;;;;;;-5.50;100.00;101000.59;5227799;28;19928;-76
2022/12/13 09:06:31;;;;;;;;;;;;;;;-5.44;100.00;100989.28;5233697;28;20115;-76
2022/12/13 09:09:02;;;;;;;;;;;;;;;-5.39;100.00;100985.78;5235693;28;19917;-77
2022/12/13 09:11:33;;;;;;;;;;;;;;;-5.33;100.00;100988.31;5229793;28;20512;-76
2022/12/13 09:14:04;;;;;;;;;;;;;;;-5.27;100.00;100986.50;5233253;28;20379;-77
2022/12/13 09:16:35;;;;;;;;;;;;;;;-5.19;100.00;100993.38;5236208;28;20024;-77
2022/12/13 09:19:07;;;;;;;;;;;;;;;-5.16;100.00;100995.97;5229386;28;19924;-77
2022/12/13 09:21:38;;;;;;;;;;;;;;;-5.09;100.00;100998.50;5239287;28;19932;-78
2022/12/13 09:24:10;;;;;;;;;;;;;;;-5.05;100.00;100995.84;5235907;28;19924;-78
2022/12/13 09:26:41;;;;;;;;;;;;;;;-5.01;100.00;100994.94;5238448;28;20278;-77
2022/12/13 09:29:15;;;;;;;;;;;;;;;-4.95;100.00;100987.09;5237313;28;19916;-78
2022/12/13 09:31:46;;;;;;;;;;;;;;;-4.90;100.00;101000.03;5229163;28;19917;-78
2022/12/13 09:34:17;;;;;;;;;;;;;;;-4.84;100.00;100993.91;5229955;28;19917;-78
2022/12/13 09:36:48;;;;;;;;;;;;;;;-4.76;100.00;100989.47;5234628;28;20280;-78
2022/12/13 09:39:19;;;;;;;;;;;;;;;-4.73;100.00;100992.06;5234331;28;19991;-78
2022/12/13 09:41:55;;;;;;;;;;;;;;;-4.69;100.00;100990.28;5230556;28;19924;-78
2022/12/13 09:44:26;;;;;;;;;;;;;;;-4.64;100.00;100986.75;5235394;28;19944;-78
2022/12/13 09:46:59;;;;;;;;;;;;;;;-4.60;100.00;100983.22;5230177;28;19976;-78
2022/12/13 09:49:36;;;;;;;;;;;;;;;-4.55;100.00;100986.63;5230755;28;19940;-78
2022/12/13 09:52:12;;;;;;;;;;;;;;;-4.48;100.00;100984.81;5229266;28;19925;-78
2022/12/13 09:54:43;;;;;;;;;;;;;;;-4.43;100.00;100982.13;5233407;28;19924;-78
2022/12/13 09:57:17;;;;;;;;;;;;;;;-4.38;100.00;100989.03;5226148;28;20359;-78
2022/12/13 09:59:49;;;;;;;;;;;;;;;-4.33;100.00;100983.78;5234386;28;19975;-78
2022/12/13 10:02:25;;;;;;;;;;;;;;;-4.28;100.00;100976.72;5231284;28;19920;-79
2022/12/13 10:05:13;;;;;;;;;;;;;;;-4.22;100.00;100984.50;5233299;28;20585;-79
2022/12/13 10:07:45;;;;;;;;;;;;;;;-4.19;100.00;100976.63;5232406;28;20333;-79
2022/12/13 10:10:16;;;;;;;;;;;;;;;-4.14;100.00;100974.81;5231905;28;19917;-79
2022/12/13 10:12:51;;;;;;;;;;;;;;;-4.07;100.00;100969.53;5236477;28;19917;-79
2022/12/13 10:15:23;;;;;;;;;;;;;;;-4.04;100.00;100964.28;5239101;28;19951;-79
2022/12/13 10:17:54;;;;;;;;;;;;;;;-3.99;100.00;100960.72;5241284;28;19920;-79
2022/12/13 10:20:27;;;;;;;;;;;;;;;-3.96;100.00;100954.59;5240626;28;19991;-79
2022/12/13 10:22:58;;;;;;;;;;;;;;;-3.92;100.00;100963.22;5234097;28;19909;-79
2022/12/13 10:25:53;;;;;;;;;;;;;;;-3.87;100.00;100971.81;5242286;28;20324;-80
2022/12/13 10:28:26;;;;;;;;;;;;;;;-3.83;100.00;100958.75;5241320;28;19909;-79
2022/12/13 10:30:59;;;;;;;;;;;;;;;-3.79;100.00;100947.38;5241377;28;19967;-79
2022/12/13 10:33:38;;;;;;;;;;;;;;;-3.75;100.00;100948.19;5241524;28;19913;-80
2022/12/13 10:36:10;;;;;;;;;;;;;;;-3.72;100.00;100936.84;5242485;28;20012;-79
2022/12/13 10:38:44;;;;;;;;;;;;;;;-3.69;100.00;100931.59;5256544;28;20342;-79
2022/12/13 10:41:31;;;;;;;;;;;;;;;-3.62;100.00;100944.50;5241513;28;20359;-79
2022/12/13 10:44:13;;;;;;;;;;;;;;;-3.63;100.00;100942.75;5223675;28;20004;-79
2022/12/13 10:46:49;;;;;;;;;;;;;;;-3.63;100.00;100939.31;5241674;28;20363;-80
2022/12/13 10:49:25;;;;;;;;;;;;;;;-3.58;100.00;100942.72;5227149;28;20422;-80
2022/12/13 10:51:58;;;;;;;;;;;;;;;-3.55;100.00;100932.22;5231856;28;19909;-80
2022/12/13 10:54:32;;;;;;;;;;;;;;;-3.53;100.00;100917.38;5241651;28;19963;-80
2022/12/13 10:57:04;;;;;;;;;;;;;;;-3.49;100.00;100916.47;5241565;28;19956;-80
2022/12/13 10:59:36;;;;;;;;;;;;;;;-3.44;100.00;100914.63;5237196;28;19960;-80
2022/12/13 11:02:26;;;;;;;;;;;;;;;-3.37;100.00;100908.41;5221449;28;19933;-80
2022/12/13 11:04:59;;;;;;;;;;;;;;;-3.29;100.00;100903.06;5221065;28;19996;-79
2022/12/13 11:07:31;;;;;;;;;;;;;;;-3.22;100.00;100904.69;5221307;28;19913;-80
2022/12/13 11:10:28;;;;;;;;;;;;;;;-3.15;100.00;100901.03;5221051;28;19909;-80
2022/12/13 11:13:02;;;;;;;;;;;;;;;-3.10;100.00;100903.59;5223388;28;19913;-80
2022/12/13 11:15:36;;;;;;;;;;;;;;;-3.05;100.00;100899.16;5231528;28;19909;-80
2022/12/13 11:18:17;;;;;;;;;;;;;;;-2.98;100.00;100884.22;5245366;28;19999;-81
2022/12/13 11:21:00;;;;;;;;;;;;;;;-2.96;100.00;100880.66;5247139;28;19909;-81
2022/12/13 11:23:34;;;;;;;;;;;;;;;-2.92;100.00;100891.91;5246019;28;20351;-82
2022/12/13 11:26:08;;;;;;;;;;;;;;;-2.88;100.00;100903.16;5245865;28;19909;-81
2022/12/13 11:28:39;;;;;;;;;;;;;;;-2.84;100.00;100892.63;5245349;28;19916;-81
2022/12/13 11:31:19;;;;;;;;;;;;;;;-2.82;100.00;100885.63;5235275;28;19910;-81
2022/12/13 11:33:56;;;;;;;;;;;;;;;-2.78;100.00;100882.06;5232316;28;20357;-81
2022/12/13 11:36:27;;;;;;;;;;;;;;;-2.74;100.00;100875.03;5244253;28;19913;-81
2022/12/13 11:39:05;;;;;;;;;;;;;;;-2.71;100.00;100885.38;5243272;28;19923;-81
2022/12/13 11:41:54;;;;;;;;;;;;;;;-2.68;100.00;100877.50;5238952;28;20007;-81
2022/12/13 11:44:28;;;;;;;;;;;;;;;-2.62;100.00;100884.34;5235743;28;19917;-80
2022/12/13 11:46:59;;;;;;;;;;;;;;;-2.60;100.00;100886.03;5242163;28;19913;-81
2022/12/13 11:49:36;;;;;;;;;;;;;;;-2.58;100.00;100867.72;5242247;28;19916;-81
2022/12/13 11:52:14;;;;;;;;;;;;;;;-2.56;100.00;100864.16;5241471;28;19928;-81
2022/12/13 11:54:49;;;;;;;;;;;;;;;-2.53;100.00;100870.22;5242306;28;20286;-81
2022/12/13 11:57:35;;;;;;;;;;;;;;;-2.50;100.00;100859.72;5232363;28;19921;-81
2022/12/13 12:00:26;;;;;;;;;;;;;;;-2.46;100.00;100859.59;5241291;28;19964;-81
2022/12/13 12:03:03;;;;;;;;;;;;;;;-2.40;100.00;100855.97;5240814;28;20444;-81
2022/12/13 12:05:35;;;;;;;;;;;;;;;-2.37;100.00;100838.50;5237449;28;19920;-82
2022/12/13 12:08:22;;;;;;;;;;;;;;;-2.33;100.00;100844.50;5234507;28;20009;-81
2022/12/13 12:11:07;;;;;;;;;;;;;;;-2.30;100.00;100847.06;5238573;28;19917;-81
2022/12/13 12:13:41;;;;;;;;;;;;;;;-2.27;100.00;100835.66;5236308;28;19916;-82
2022/12/13 12:16:27;;;;;;;;;;;;;;;-2.24;100.00;100839.06;5239926;28;19923;-81
2022/12/13 12:18:58;;;;;;;;;;;;;;;-2.19;100.00;100832.00;5237409;28;19909;-81
2022/12/13 12:21:39;;;;;;;;;;;;;;;-2.14;100.00;100833.63;5237941;28;19920;-81
2022/12/13 12:24:30;;;;;;;;;;;;;;;-2.07;100.00;100830.81;5233342;28;20365;-81
2022/12/13 12:27:13;;;;;;;;;;;;;;;-2.05;100.00;100829.03;5234054;28;19913;-81
2022/12/13 12:30:00;;;;;;;;;;;;;;;-2.04;100.00;100837.72;5234251;28;19913;-82
2022/12/13 12:32:52;;;;;;;;;;;;;;;-2.05;100.00;100843.84;5233598;28;19951;-81
2022/12/13 12:35:41;;;;;;;;;;;;;;;-2.06;100.00;100831.69;5233832;28;19916;-81
2022/12/13 12:38:32;;;;;;;;;;;;;;;-2.06;100.00;100827.31;5237501;28;19913;-81
2022/12/13 12:41:04;;;;;;;;;;;;;;;-2.06;100.00;100827.31;5234756;28;19917;-82
2022/12/13 12:43:38;;;;;;;;;;;;;;;-2.04;100.00;100829.88;5231135;28;19917;-81
2022/12/13 12:46:24;;;;;;;;;;;;;;;-2.05;100.00;100834.25;5247842;28;19966;-81
2022/12/13 12:49:03;;;;;;;;;;;;;;;-2.03;100.00;100836.84;5240321;28;20374;-81
2022/12/13 12:51:40;;;;;;;;;;;;;;;-2.02;100.00;100842.00;5238016;28;19910;-81
2022/12/13 12:54:21;;;;;;;;;;;;;;;-2.01;100.00;100848.97;5231645;28;19913;-81
2022/12/13 12:57:03;;;;;;;;;;;;;;;-1.99;100.00;100844.56;5233031;28;19928;-81